sensor_id;sensor_type;location;lat;lon;timestamp;temperature;humidity
16404;DHT22;8311;50.158;8.642;2022-12-07T00:01:41;19.20;53.90
16404;DHT22;8311;50.158;8.642;2022-12-07T00:04:35;19.20;53.30
16404;DHT22;8311;50.158;8.642;2022-12-07T00:07:28;19.20;53.30
16404;DHT22;8311;50.158;8.642;2022-12-07T00:10:21;19.20;53.30
16404;DHT22;8311;50.158;8.642;2022-12-07T00:13:14;19.20;53.30
16404;DHT22;8311;50.158;8.642;2022-12-07T00:16:08;19.20;53.30
16404;DHT22;8311;50.158;8.642;2022-12-07T00:19:04;19.20;53.30
16404;DHT22;8311;50.158;8.642;2022-12-07T00:21:57;19.20;53.30
16404;DHT22;8311;50.158;8.642;2022-12-07T00:24:50;19.20;53.30
16404;DHT22;8311;50.158;8.642;2022-12-07T00:27:43;19.20;53.30
16404;DHT22;8311;50.158;8.642;2022-12-07T00:30:36;19.20;53.30
16404;DHT22;8311;50.158;8.642;2022-12-07T00:33:29;19.20;53.30
16404;DHT22;8311;50.158;8.642;2022-12-07T00:36:24;19.20;53.30
16404;DHT22;8311;50.158;8.642;2022-12-07T00:39:18;19.20;53.30
16404;DHT22;8311;50.158;8.642;2022-12-07T00:42:11;19.20;53.30
16404;DHT22;8311;50.158;8.642;2022-12-07T00:45:06;19.20;53.30
16404;DHT22;8311;50.158;8.642;2022-12-07T00:48:00;19.20;53.30
16404;DHT22;8311;50.158;8.642;2022-12-07T00:50:53;19.20;53.20
16404;DHT22;8311;50.158;8.642;2022-12-07T00:53:48;19.20;53.30
16404;DHT22;8311;50.158;8.642;2022-12-07T00:56:41;19.20;53.30
16404;DHT22;8311;50.158;8.642;2022-12-07T00:59:34;19.10;53.20
16404;DHT22;8311;50.158;8.642;2022-12-07T01:02:28;19.20;53.30
16404;DHT22;8311;50.158;8.642;2022-12-07T01:05:21;19.10;53.20
16404;DHT22;8311;50.158;8.642;2022-12-07T01:08:14;19.10;53.80
16404;DHT22;8311;50.158;8.642;2022-12-07T01:11:12;19.10;53.20
16404;DHT22;8311;50.158;8.642;2022-12-07T01:14:06;19.10;53.20
16404;DHT22;8311;50.158;8.642;2022-12-07T01:16:59;19.10;53.20
16404;DHT22;8311;50.158;8.642;2022-12-07T01:19:52;19.10;53.20
16404;DHT22;8311;50.158;8.642;2022-12-07T01:22:45;19.10;53.20
16404;DHT22;8311;50.158;8.642;2022-12-07T01:25:39;19.10;53.20
16404;DHT22;8311;50.158;8.642;2022-12-07T01:28:34;19.10;53.20
16404;DHT22;8311;50.158;8.642;2022-12-07T01:31:28;19.10;53.20
16404;DHT22;8311;50.158;8.642;2022-12-07T01:34:21;19.10;53.20
16404;DHT22;8311;50.158;8.642;2022-12-07T01:37:15;19.10;53.20
16404;DHT22;8311;50.158;8.642;2022-12-07T01:40:10;19.10;53.80
16404;DHT22;8311;50.158;8.642;2022-12-07T01:43:07;19.10;53.20
16404;DHT22;8311;50.158;8.642;2022-12-07T01:46:03;19.10;53.20
16404;DHT22;8311;50.158;8.642;2022-12-07T01:48:56;19.00;53.10
16404;DHT22;8311;50.158;8.642;2022-12-07T01:51:51;19.00;53.10
16404;DHT22;8311;50.158;8.642;2022-12-07T01:54:46;19.00;53.10
16404;DHT22;8311;50.158;8.642;2022-12-07T01:57:41;19.00;53.10
16404;DHT22;8311;50.158;8.642;2022-12-07T02:00:36;19.00;53.70
16404;DHT22;8311;50.158;8.642;2022-12-07T02:03:34;19.00;53.10
16404;DHT22;8311;50.158;8.642;2022-12-07T02:06:29;19.00;53.10
16404;DHT22;8311;50.158;8.642;2022-12-07T02:09:23;19.00;53.10
16404;DHT22;8311;50.158;8.642;2022-12-07T02:12:16;19.00;53.10
16404;DHT22;8311;50.158;8.642;2022-12-07T02:15:09;19.00;53.10
16404;DHT22;8311;50.158;8.642;2022-12-07T02:18:07;19.00;53.10
16404;DHT22;8311;50.158;8.642;2022-12-07T02:21:07;19.00;53.10
16404;DHT22;8311;50.158;8.642;2022-12-07T02:24:19;19.00;53.10
16404;DHT22;8311;50.158;8.642;2022-12-07T02:27:37;19.00;53.10
16404;DHT22;8311;50.158;8.642;2022-12-07T02:30:37;19.00;53.10
16404;DHT22;8311;50.158;8.642;2022-12-07T02:33:36;19.00;53.10
16404;DHT22;8311;50.158;8.642;2022-12-07T02:36:32;19.00;53.10
16404;DHT22;8311;50.158;8.642;2022-12-07T02:39:36;19.00;53.00
16404;DHT22;8311;50.158;8.642;2022-12-07T02:42:35;19.00;53.10
16404;DHT22;8311;50.158;8.642;2022-12-07T02:45:30;19.00;53.10
16404;DHT22;8311;50.158;8.642;2022-12-07T02:48:26;19.00;53.10
16404;DHT22;8311;50.158;8.642;2022-12-07T02:51:22;19.00;53.10
16404;DHT22;8311;50.158;8.642;2022-12-07T02:54:17;19.00;53.10
16404;DHT22;8311;50.158;8.642;2022-12-07T02:57:25;18.90;53.00
16404;DHT22;8311;50.158;8.642;2022-12-07T03:00:21;18.90;53.00
16404;DHT22;8311;50.158;8.642;2022-12-07T03:03:15;19.00;53.10
16404;DHT22;8311;50.158;8.642;2022-12-07T03:06:15;19.00;53.00
16404;DHT22;8311;50.158;8.642;2022-12-07T03:09:13;18.90;53.00
16404;DHT22;8311;50.158;8.642;2022-12-07T03:12:10;18.90;53.00
16404;DHT22;8311;50.158;8.642;2022-12-07T03:15:10;19.00;53.10
16404;DHT22;8311;50.158;8.642;2022-12-07T03:18:04;18.90;53.00
16404;DHT22;8311;50.158;8.642;2022-12-07T03:21:02;18.90;53.00
16404;DHT22;8311;50.158;8.642;2022-12-07T03:24:00;18.90;53.00
16404;DHT22;8311;50.158;8.642;2022-12-07T03:27:01;18.90;53.00
16404;DHT22;8311;50.158;8.642;2022-12-07T03:30:00;18.90;53.00
16404;DHT22;8311;50.158;8.642;2022-12-07T03:32:58;18.90;53.60
16404;DHT22;8311;50.158;8.642;2022-12-07T03:36:00;18.90;53.00
16404;DHT22;8311;50.158;8.642;2022-12-07T03:39:01;18.90;53.00
16404;DHT22;8311;50.158;8.642;2022-12-07T03:41:55;18.90;53.00
16404;DHT22;8311;50.158;8.642;2022-12-07T03:44:49;18.90;53.00
16404;DHT22;8311;50.158;8.642;2022-12-07T03:47:46;18.90;53.00
16404;DHT22;8311;50.158;8.642;2022-12-07T03:50:45;18.90;53.00
16404;DHT22;8311;50.158;8.642;2022-12-07T03:53:46;18.80;52.90
16404;DHT22;8311;50.158;8.642;2022-12-07T03:56:45;18.80;52.90
16404;DHT22;8311;50.158;8.642;2022-12-07T03:59:39;18.80;52.90
16404;DHT22;8311;50.158;8.642;2022-12-07T04:02:33;18.80;53.00
16404;DHT22;8311;50.158;8.642;2022-12-07T04:05:26;18.80;52.90
16404;DHT22;8311;50.158;8.642;2022-12-07T04:08:19;18.80;52.90
16404;DHT22;8311;50.158;8.642;2022-12-07T04:11:13;18.80;52.90
16404;DHT22;8311;50.158;8.642;2022-12-07T04:14:07;18.80;52.90
16404;DHT22;8311;50.158;8.642;2022-12-07T04:17:12;18.80;52.90
16404;DHT22;8311;50.158;8.642;2022-12-07T04:20:07;18.90;53.00
16404;DHT22;8311;50.158;8.642;2022-12-07T04:23:01;18.80;53.00
16404;DHT22;8311;50.158;8.642;2022-12-07T04:25:54;18.80;52.90
16404;DHT22;8311;50.158;8.642;2022-12-07T04:28:47;18.90;53.00
16404;DHT22;8311;50.158;8.642;2022-12-07T04:31:41;18.80;52.90
16404;DHT22;8311;50.158;8.642;2022-12-07T04:34:35;18.80;52.90
16404;DHT22;8311;50.158;8.642;2022-12-07T04:37:28;18.80;52.90
16404;DHT22;8311;50.158;8.642;2022-12-07T04:40:21;18.80;52.90
16404;DHT22;8311;50.158;8.642;2022-12-07T04:43:14;18.80;52.90
16404;DHT22;8311;50.158;8.642;2022-12-07T04:46:07;18.80;53.00
16404;DHT22;8311;50.158;8.642;2022-12-07T04:49:02;18.80;53.00
16404;DHT22;8311;50.158;8.642;2022-12-07T04:51:55;18.80;53.00
16404;DHT22;8311;50.158;8.642;2022-12-07T04:54:48;18.80;53.00
16404;DHT22;8311;50.158;8.642;2022-12-07T04:57:42;18.80;52.90
16404;DHT22;8311;50.158;8.642;2022-12-07T05:00:35;18.80;53.00
16404;DHT22;8311;50.158;8.642;2022-12-07T05:03:28;18.80;52.90
16404;DHT22;8311;50.158;8.642;2022-12-07T05:06:22;18.80;52.90
16404;DHT22;8311;50.158;8.642;2022-12-07T05:09:16;18.80;52.90
16404;DHT22;8311;50.158;8.642;2022-12-07T05:12:09;18.70;52.90
16404;DHT22;8311;50.158;8.642;2022-12-07T05:15:03;18.80;52.90
16404;DHT22;8311;50.158;8.642;2022-12-07T05:17:56;18.70;52.90
16404;DHT22;8311;50.158;8.642;2022-12-07T05:20:49;18.70;53.00
16404;DHT22;8311;50.158;8.642;2022-12-07T05:23:44;18.70;52.90
16404;DHT22;8311;50.158;8.642;2022-12-07T05:26:37;18.80;52.90
16404;DHT22;8311;50.158;8.642;2022-12-07T05:29:30;18.70;52.90
16404;DHT22;8311;50.158;8.642;2022-12-07T05:32:23;18.70;52.90
16404;DHT22;8311;50.158;8.642;2022-12-07T05:35:16;18.70;52.90
16404;DHT22;8311;50.158;8.642;2022-12-07T05:38:09;18.70;53.00
16404;DHT22;8311;50.158;8.642;2022-12-07T05:41:05;18.70;52.90
16404;DHT22;8311;50.158;8.642;2022-12-07T05:43:58;18.70;53.00
16404;DHT22;8311;50.158;8.642;2022-12-07T05:46:51;18.70;52.90
16404;DHT22;8311;50.158;8.642;2022-12-07T05:49:44;18.70;52.90
16404;DHT22;8311;50.158;8.642;2022-12-07T05:52:39;18.70;52.90
16404;DHT22;8311;50.158;8.642;2022-12-07T05:55:32;18.70;53.00
16404;DHT22;8311;50.158;8.642;2022-12-07T05:58:26;18.70;52.90
16404;DHT22;8311;50.158;8.642;2022-12-07T06:01:37;18.70;53.00
16404;DHT22;8311;50.158;8.642;2022-12-07T06:04:34;18.70;52.90
16404;DHT22;8311;50.158;8.642;2022-12-07T06:07:27;18.70;52.90
16404;DHT22;8311;50.158;8.642;2022-12-07T06:10:20;18.70;53.00
16404;DHT22;8311;50.158;8.642;2022-12-07T06:13:13;18.70;52.90
16404;DHT22;8311;50.158;8.642;2022-12-07T06:16:07;18.70;52.90
16404;DHT22;8311;50.158;8.642;2022-12-07T06:19:00;18.70;52.90
16404;DHT22;8311;50.158;8.642;2022-12-07T06:21:53;18.70;52.90
16404;DHT22;8311;50.158;8.642;2022-12-07T06:24:46;18.70;53.00
16404;DHT22;8311;50.158;8.642;2022-12-07T06:27:39;18.70;52.90
16404;DHT22;8311;50.158;8.642;2022-12-07T06:30:32;18.70;53.00
16404;DHT22;8311;50.158;8.642;2022-12-07T06:33:27;18.70;53.00
16404;DHT22;8311;50.158;8.642;2022-12-07T06:36:20;18.70;52.90
16404;DHT22;8311;50.158;8.642;2022-12-07T06:39:19;18.70;52.90
16404;DHT22;8311;50.158;8.642;2022-12-07T06:42:12;18.70;53.00
16404;DHT22;8311;50.158;8.642;2022-12-07T06:45:06;18.60;52.90
16404;DHT22;8311;50.158;8.642;2022-12-07T06:48:00;18.70;52.90
16404;DHT22;8311;50.158;8.642;2022-12-07T06:50:54;18.60;52.90
16404;DHT22;8311;50.158;8.642;2022-12-07T06:53:47;18.70;52.90
16404;DHT22;8311;50.158;8.642;2022-12-07T06:56:40;18.70;52.90
16404;DHT22;8311;50.158;8.642;2022-12-07T06:59:34;18.70;52.90
16404;DHT22;8311;50.158;8.642;2022-12-07T07:02:27;18.60;52.90
16404;DHT22;8311;50.158;8.642;2022-12-07T07:05:20;18.70;52.90
16404;DHT22;8311;50.158;8.642;2022-12-07T07:08:16;18.60;52.90
16404;DHT22;8311;50.158;8.642;2022-12-07T07:11:14;18.60;52.90
16404;DHT22;8311;50.158;8.642;2022-12-07T07:14:07;18.60;52.90
16404;DHT22;8311;50.158;8.642;2022-12-07T07:17:00;18.60;52.90
16404;DHT22;8311;50.158;8.642;2022-12-07T07:19:53;18.60;52.90
16404;DHT22;8311;50.158;8.642;2022-12-07T07:22:46;18.60;52.90
16404;DHT22;8311;50.158;8.642;2022-12-07T07:25:41;18.60;52.90
16404;DHT22;8311;50.158;8.642;2022-12-07T07:28:34;18.60;52.90
16404;DHT22;8311;50.158;8.642;2022-12-07T07:31:27;18.60;52.90
16404;DHT22;8311;50.158;8.642;2022-12-07T07:34:20;18.60;52.90
16404;DHT22;8311;50.158;8.642;2022-12-07T07:37:13;18.60;52.90
16404;DHT22;8311;50.158;8.642;2022-12-07T07:40:12;18.60;52.90
16404;DHT22;8311;50.158;8.642;2022-12-07T07:43:07;18.60;52.90
16404;DHT22;8311;50.158;8.642;2022-12-07T07:46:00;18.60;52.90
16404;DHT22;8311;50.158;8.642;2022-12-07T07:48:53;18.60;52.90
16404;DHT22;8311;50.158;8.642;2022-12-07T07:51:46;18.60;52.90
16404;DHT22;8311;50.158;8.642;2022-12-07T07:54:39;18.60;52.90
16404;DHT22;8311;50.158;8.642;2022-12-07T07:57:32;18.60;52.80
16404;DHT22;8311;50.158;8.642;2022-12-07T08:00:26;18.60;52.90
16404;DHT22;8311;50.158;8.642;2022-12-07T08:03:20;18.60;52.80
16404;DHT22;8311;50.158;8.642;2022-12-07T08:06:13;18.60;52.80
16404;DHT22;8311;50.158;8.642;2022-12-07T08:09:06;18.60;52.80
16404;DHT22;8311;50.158;8.642;2022-12-07T08:11:59;18.60;52.80
16404;DHT22;8311;50.158;8.642;2022-12-07T08:14:53;18.60;52.80
16404;DHT22;8311;50.158;8.642;2022-12-07T08:17:47;18.60;52.70
16404;DHT22;8311;50.158;8.642;2022-12-07T08:20:40;18.60;52.70
16404;DHT22;8311;50.158;8.642;2022-12-07T08:23:34;18.60;52.70
16404;DHT22;8311;50.158;8.642;2022-12-07T08:26:30;18.60;52.70
16404;DHT22;8311;50.158;8.642;2022-12-07T08:29:23;18.60;52.70
16404;DHT22;8311;50.158;8.642;2022-12-07T08:32:16;18.60;52.60
16404;DHT22;8311;50.158;8.642;2022-12-07T08:35:11;18.60;52.60
16404;DHT22;8311;50.158;8.642;2022-12-07T08:38:04;18.60;52.60
16404;DHT22;8311;50.158;8.642;2022-12-07T08:40:58;18.60;52.50
16404;DHT22;8311;50.158;8.642;2022-12-07T08:43:51;18.60;52.50
16404;DHT22;8311;50.158;8.642;2022-12-07T08:46:46;18.60;52.50
16404;DHT22;8311;50.158;8.642;2022-12-07T08:49:43;18.70;52.50
16404;DHT22;8311;50.158;8.642;2022-12-07T08:52:39;18.70;52.40
16404;DHT22;8311;50.158;8.642;2022-12-07T08:55:33;18.70;52.40
16404;DHT22;8311;50.158;8.642;2022-12-07T08:58:27;18.70;52.40
16404;DHT22;8311;50.158;8.642;2022-12-07T09:01:20;18.70;52.30
16404;DHT22;8311;50.158;8.642;2022-12-07T09:04:14;18.70;52.30
16404;DHT22;8311;50.158;8.642;2022-12-07T09:07:09;18.80;52.70
16404;DHT22;8311;50.158;8.642;2022-12-07T09:10:05;18.80;52.90
16404;DHT22;8311;50.158;8.642;2022-12-07T09:12:58;18.80;53.00
16404;DHT22;8311;50.158;8.642;2022-12-07T09:15:52;18.90;53.00
16404;DHT22;8311;50.158;8.642;2022-12-07T09:18:45;18.90;53.10
16404;DHT22;8311;50.158;8.642;2022-12-07T09:21:38;19.00;53.10
16404;DHT22;8311;50.158;8.642;2022-12-07T09:24:31;19.00;53.10
16404;DHT22;8311;50.158;8.642;2022-12-07T09:27:26;19.00;53.40
16404;DHT22;8311;50.158;8.642;2022-12-07T09:30:19;19.10;53.40
16404;DHT22;8311;50.158;8.642;2022-12-07T09:33:12;19.00;53.10
16404;DHT22;8311;50.158;8.642;2022-12-07T09:36:06;19.10;52.90
16404;DHT22;8311;50.158;8.642;2022-12-07T09:39:00;19.10;53.00
16404;DHT22;8311;50.158;8.642;2022-12-07T09:41:54;19.10;52.90
16404;DHT22;8311;50.158;8.642;2022-12-07T09:44:51;19.10;53.00
16404;DHT22;8311;50.158;8.642;2022-12-07T09:47:45;19.10;52.90
16404;DHT22;8311;50.158;8.642;2022-12-07T09:50:39;19.10;53.40
16404;DHT22;8311;50.158;8.642;2022-12-07T09:53:34;19.10;52.50
16404;DHT22;8311;50.158;8.642;2022-12-07T09:56:29;19.10;52.50
16404;DHT22;8311;50.158;8.642;2022-12-07T09:59:23;19.10;52.40
16404;DHT22;8311;50.158;8.642;2022-12-07T10:02:25;19.10;53.30
16404;DHT22;8311;50.158;8.642;2022-12-07T10:05:23;19.20;54.30
16404;DHT22;8311;50.158;8.642;2022-12-07T10:08:18;19.20;53.40
16404;DHT22;8311;50.158;8.642;2022-12-07T10:11:12;19.20;51.20
16404;DHT22;8311;50.158;8.642;2022-12-07T10:14:11;19.10;46.20
16404;DHT22;8311;50.158;8.642;2022-12-07T10:17:32;19.00;46.50
16404;DHT22;8311;50.158;8.642;2022-12-07T10:20:27;18.90;48.90
16404;DHT22;8311;50.158;8.642;2022-12-07T10:23:20;18.90;51.00
16404;DHT22;8311;50.158;8.642;2022-12-07T10:26:21;18.90;49.90
16404;DHT22;8311;50.158;8.642;2022-12-07T10:29:23;18.90;49.60
16404;DHT22;8311;50.158;8.642;2022-12-07T10:32:32;18.90;49.70
16404;DHT22;8311;50.158;8.642;2022-12-07T10:35:27;18.90;49.90
16404;DHT22;8311;50.158;8.642;2022-12-07T10:38:20;18.90;50.00
16404;DHT22;8311;50.158;8.642;2022-12-07T10:41:13;18.90;50.10
16404;DHT22;8311;50.158;8.642;2022-12-07T10:44:21;18.90;50.20
16404;DHT22;8311;50.158;8.642;2022-12-07T10:47:28;18.90;50.30
16404;DHT22;8311;50.158;8.642;2022-12-07T10:50:54;18.90;50.30
16404;DHT22;8311;50.158;8.642;2022-12-07T10:53:58;18.90;51.00
16404;DHT22;8311;50.158;8.642;2022-12-07T10:57:02;18.90;50.50
16404;DHT22;8311;50.158;8.642;2022-12-07T11:00:02;18.90;50.60
16404;DHT22;8311;50.158;8.642;2022-12-07T11:03:22;18.90;50.70
16404;DHT22;8311;50.158;8.642;2022-12-07T11:06:26;18.90;50.60
16404;DHT22;8311;50.158;8.642;2022-12-07T11:13:15;18.80;50.70
16404;DHT22;8311;50.158;8.642;2022-12-07T11:16:25;18.80;50.70
16404;DHT22;8311;50.158;8.642;2022-12-07T11:19:39;18.80;50.70
16404;DHT22;8311;50.158;8.642;2022-12-07T11:22:43;18.80;50.80
16404;DHT22;8311;50.158;8.642;2022-12-07T11:25:43;18.80;50.80
16404;DHT22;8311;50.158;8.642;2022-12-07T11:28:57;18.80;50.80
16404;DHT22;8311;50.158;8.642;2022-12-07T11:32:02;18.80;50.90
16404;DHT22;8311;50.158;8.642;2022-12-07T11:35:05;18.80;50.90
16404;DHT22;8311;50.158;8.642;2022-12-07T11:38:09;18.80;50.90
16404;DHT22;8311;50.158;8.642;2022-12-07T11:41:05;18.80;50.90
16404;DHT22;8311;50.158;8.642;2022-12-07T11:44:14;18.80;50.90
16404;DHT22;8311;50.158;8.642;2022-12-07T11:47:25;18.80;50.90
16404;DHT22;8311;50.158;8.642;2022-12-07T11:50:26;18.80;51.00
16404;DHT22;8311;50.158;8.642;2022-12-07T11:53:24;18.80;51.00
16404;DHT22;8311;50.158;8.642;2022-12-07T11:56:20;18.70;51.00
16404;DHT22;8311;50.158;8.642;2022-12-07T11:59:19;18.80;51.00
16404;DHT22;8311;50.158;8.642;2022-12-07T12:02:16;18.70;51.00
16404;DHT22;8311;50.158;8.642;2022-12-07T12:05:18;18.70;51.00
16404;DHT22;8311;50.158;8.642;2022-12-07T12:08:16;18.70;51.00
16404;DHT22;8311;50.158;8.642;2022-12-07T12:11:43;18.70;51.00
16404;DHT22;8311;50.158;8.642;2022-12-07T12:14:46;18.70;51.00
16404;DHT22;8311;50.158;8.642;2022-12-07T12:17:56;18.70;51.00
16404;DHT22;8311;50.158;8.642;2022-12-07T12:20:54;18.70;51.00
16404;DHT22;8311;50.158;8.642;2022-12-07T12:23:51;18.70;51.10
16404;DHT22;8311;50.158;8.642;2022-12-07T12:26:52;18.70;51.10
16404;DHT22;8311;50.158;8.642;2022-12-07T12:29:53;18.70;51.10
16404;DHT22;8311;50.158;8.642;2022-12-07T12:32:47;18.70;51.10
16404;DHT22;8311;50.158;8.642;2022-12-07T12:35:41;18.70;51.10
16404;DHT22;8311;50.158;8.642;2022-12-07T12:38:48;18.70;51.10
16404;DHT22;8311;50.158;8.642;2022-12-07T12:41:57;18.70;51.10
16404;DHT22;8311;50.158;8.642;2022-12-07T12:45:19;18.70;51.10
16404;DHT22;8311;50.158;8.642;2022-12-07T12:48:28;18.70;51.10
16404;DHT22;8311;50.158;8.642;2022-12-07T12:51:37;18.70;51.10
16404;DHT22;8311;50.158;8.642;2022-12-07T12:54:33;18.70;51.10
16404;DHT22;8311;50.158;8.642;2022-12-07T12:57:33;18.70;51.70
16404;DHT22;8311;50.158;8.642;2022-12-07T13:00:26;18.70;51.10
16404;DHT22;8311;50.158;8.642;2022-12-07T13:03:24;18.70;51.20
16404;DHT22;8311;50.158;8.642;2022-12-07T13:06:20;18.70;51.20
16404;DHT22;8311;50.158;8.642;2022-12-07T13:09:26;18.70;51.20
16404;DHT22;8311;50.158;8.642;2022-12-07T13:12:21;18.70;51.20
16404;DHT22;8311;50.158;8.642;2022-12-07T13:15:35;18.70;51.20
16404;DHT22;8311;50.158;8.642;2022-12-07T13:18:35;18.70;51.20
16404;DHT22;8311;50.158;8.642;2022-12-07T13:21:42;18.70;51.20
16404;DHT22;8311;50.158;8.642;2022-12-07T13:24:35;18.70;51.30
16404;DHT22;8311;50.158;8.642;2022-12-07T13:27:29;18.70;51.20
16404;DHT22;8311;50.158;8.642;2022-12-07T13:30:23;18.70;51.20
16404;DHT22;8311;50.158;8.642;2022-12-07T13:33:18;18.60;51.20
16404;DHT22;8311;50.158;8.642;2022-12-07T13:36:20;18.70;51.30
16404;DHT22;8311;50.158;8.642;2022-12-07T13:39:19;18.70;51.30
16404;DHT22;8311;50.158;8.642;2022-12-07T13:42:21;18.70;51.30
16404;DHT22;8311;50.158;8.642;2022-12-07T13:45:22;18.70;51.30
16404;DHT22;8311;50.158;8.642;2022-12-07T13:48:45;18.60;51.20
16404;DHT22;8311;50.158;8.642;2022-12-07T13:51:39;18.60;51.30
16404;DHT22;8311;50.158;8.642;2022-12-07T13:54:32;18.70;51.30
16404;DHT22;8311;50.158;8.642;2022-12-07T13:57:28;18.60;51.30
16404;DHT22;8311;50.158;8.642;2022-12-07T14:00:24;18.70;51.30
16404;DHT22;8311;50.158;8.642;2022-12-07T14:03:29;18.60;51.30
16404;DHT22;8311;50.158;8.642;2022-12-07T14:06:26;18.60;51.30
16404;DHT22;8311;50.158;8.642;2022-12-07T14:09:21;18.60;51.30
16404;DHT22;8311;50.158;8.642;2022-12-07T14:12:14;18.60;51.30
16404;DHT22;8311;50.158;8.642;2022-12-07T14:15:20;18.60;51.30
16404;DHT22;8311;50.158;8.642;2022-12-07T14:18:26;18.60;51.30
16404;DHT22;8311;50.158;8.642;2022-12-07T14:21:23;18.60;51.30
16404;DHT22;8311;50.158;8.642;2022-12-07T14:24:19;18.60;51.30
16404;DHT22;8311;50.158;8.642;2022-12-07T14:27:18;18.60;51.30
16404;DHT22;8311;50.158;8.642;2022-12-07T14:30:16;18.60;51.30
16404;DHT22;8311;50.158;8.642;2022-12-07T14:33:09;18.60;51.30
16404;DHT22;8311;50.158;8.642;2022-12-07T14:36:03;18.60;51.50
16404;DHT22;8311;50.158;8.642;2022-12-07T14:38:57;18.60;51.30
16404;DHT22;8311;50.158;8.642;2022-12-07T14:41:51;18.60;51.30
16404;DHT22;8311;50.158;8.642;2022-12-07T14:44:45;18.60;51.30
16404;DHT22;8311;50.158;8.642;2022-12-07T14:47:38;18.60;51.40
16404;DHT22;8311;50.158;8.642;2022-12-07T14:50:52;18.60;51.40
16404;DHT22;8311;50.158;8.642;2022-12-07T14:54:13;18.60;51.40
16404;DHT22;8311;50.158;8.642;2022-12-07T14:57:09;18.60;51.40
16404;DHT22;8311;50.158;8.642;2022-12-07T15:00:03;18.60;51.40
16404;DHT22;8311;50.158;8.642;2022-12-07T15:02:57;18.60;51.40
16404;DHT22;8311;50.158;8.642;2022-12-07T15:05:50;18.60;51.40
16404;DHT22;8311;50.158;8.642;2022-12-07T15:08:44;18.60;51.40
16404;DHT22;8311;50.158;8.642;2022-12-07T15:11:39;18.60;51.40
16404;DHT22;8311;50.158;8.642;2022-12-07T15:14:35;18.60;51.40
16404;DHT22;8311;50.158;8.642;2022-12-07T15:17:28;18.60;51.40
16404;DHT22;8311;50.158;8.642;2022-12-07T15:20:24;18.60;51.40
16404;DHT22;8311;50.158;8.642;2022-12-07T15:23:17;18.60;51.40
16404;DHT22;8311;50.158;8.642;2022-12-07T15:26:10;18.60;51.40
16404;DHT22;8311;50.158;8.642;2022-12-07T15:29:05;18.60;52.00
16404;DHT22;8311;50.158;8.642;2022-12-07T15:31:58;18.60;51.40
16404;DHT22;8311;50.158;8.642;2022-12-07T15:34:52;18.60;51.50
16404;DHT22;8311;50.158;8.642;2022-12-07T15:37:46;18.60;51.40
16404;DHT22;8311;50.158;8.642;2022-12-07T15:40:40;18.60;51.50
16404;DHT22;8311;50.158;8.642;2022-12-07T15:43:33;18.60;51.50
16404;DHT22;8311;50.158;8.642;2022-12-07T15:46:45;18.60;51.50
16404;DHT22;8311;50.158;8.642;2022-12-07T15:49:39;18.60;51.50
16404;DHT22;8311;50.158;8.642;2022-12-07T15:52:33;18.50;52.10
16404;DHT22;8311;50.158;8.642;2022-12-07T15:55:27;18.50;51.40
16404;DHT22;8311;50.158;8.642;2022-12-07T15:58:21;18.60;51.50
16404;DHT22;8311;50.158;8.642;2022-12-07T16:01:15;18.60;51.50
16404;DHT22;8311;50.158;8.642;2022-12-07T16:04:10;18.60;51.50
16404;DHT22;8311;50.158;8.642;2022-12-07T16:07:03;18.60;51.50
16404;DHT22;8311;50.158;8.642;2022-12-07T16:09:56;18.50;51.50
16404;DHT22;8311;50.158;8.642;2022-12-07T16:12:49;18.50;51.50
16404;DHT22;8311;50.158;8.642;2022-12-07T16:15:43;18.50;51.50
16404;DHT22;8311;50.158;8.642;2022-12-07T16:18:36;18.50;51.50
16404;DHT22;8311;50.158;8.642;2022-12-07T16:21:30;18.50;51.50
16404;DHT22;8311;50.158;8.642;2022-12-07T16:24:24;18.50;51.50
16404;DHT22;8311;50.158;8.642;2022-12-07T16:27:17;18.50;51.50
16404;DHT22;8311;50.158;8.642;2022-12-07T16:30:12;18.60;51.60
16404;DHT22;8311;50.158;8.642;2022-12-07T16:33:08;18.50;51.50
16404;DHT22;8311;50.158;8.642;2022-12-07T16:36:02;18.50;51.60
16404;DHT22;8311;50.158;8.642;2022-12-07T16:38:58;18.50;51.60
16404;DHT22;8311;50.158;8.642;2022-12-07T16:41:52;18.50;51.60
16404;DHT22;8311;50.158;8.642;2022-12-07T16:44:45;18.50;51.60
16404;DHT22;8311;50.158;8.642;2022-12-07T16:47:39;18.50;51.60
16404;DHT22;8311;50.158;8.642;2022-12-07T16:50:32;18.50;51.60
16404;DHT22;8311;50.158;8.642;2022-12-07T16:53:26;18.50;51.60
16404;DHT22;8311;50.158;8.642;2022-12-07T16:56:20;18.50;51.60
16404;DHT22;8311;50.158;8.642;2022-12-07T16:59:14;18.50;51.60
16404;DHT22;8311;50.158;8.642;2022-12-07T17:02:09;18.50;51.60
16404;DHT22;8311;50.158;8.642;2022-12-07T17:05:03;18.50;51.60
16404;DHT22;8311;50.158;8.642;2022-12-07T17:07:57;18.50;51.60
16404;DHT22;8311;50.158;8.642;2022-12-07T17:10:51;18.50;51.70
16404;DHT22;8311;50.158;8.642;2022-12-07T17:13:45;18.50;51.70
16404;DHT22;8311;50.158;8.642;2022-12-07T17:16:56;18.50;51.70
16404;DHT22;8311;50.158;8.642;2022-12-07T17:19:49;18.50;51.70
16404;DHT22;8311;50.158;8.642;2022-12-07T17:22:42;18.50;51.70
16404;DHT22;8311;50.158;8.642;2022-12-07T17:25:35;18.50;51.70
16404;DHT22;8311;50.158;8.642;2022-12-07T17:28:27;18.50;51.70
16404;DHT22;8311;50.158;8.642;2022-12-07T17:31:23;18.50;51.70
16404;DHT22;8311;50.158;8.642;2022-12-07T17:34:17;18.50;51.70
16404;DHT22;8311;50.158;8.642;2022-12-07T17:37:10;18.50;51.70
16404;DHT22;8311;50.158;8.642;2022-12-07T17:40:05;18.50;51.70
16404;DHT22;8311;50.158;8.642;2022-12-07T17:42:58;18.50;51.70
16404;DHT22;8311;50.158;8.642;2022-12-07T17:45:51;18.50;51.70
16404;DHT22;8311;50.158;8.642;2022-12-07T17:48:46;18.50;51.70
16404;DHT22;8311;50.158;8.642;2022-12-07T17:51:40;18.50;51.70
16404;DHT22;8311;50.158;8.642;2022-12-07T17:54:50;18.50;51.80
16404;DHT22;8311;50.158;8.642;2022-12-07T17:57:44;18.50;51.80
16404;DHT22;8311;50.158;8.642;2022-12-07T18:00:37;18.50;51.80
16404;DHT22;8311;50.158;8.642;2022-12-07T18:03:31;18.50;51.80
16404;DHT22;8311;50.158;8.642;2022-12-07T18:06:26;18.50;51.80
16404;DHT22;8311;50.158;8.642;2022-12-07T18:09:19;18.50;51.80
16404;DHT22;8311;50.158;8.642;2022-12-07T18:12:13;18.50;51.80
16404;DHT22;8311;50.158;8.642;2022-12-07T18:15:07;18.50;51.80
16404;DHT22;8311;50.158;8.642;2022-12-07T18:18:01;18.50;51.80
16404;DHT22;8311;50.158;8.642;2022-12-07T18:20:55;18.50;51.80
16404;DHT22;8311;50.158;8.642;2022-12-07T18:23:50;18.50;51.80
16404;DHT22;8311;50.158;8.642;2022-12-07T18:26:45;18.50;51.80
16404;DHT22;8311;50.158;8.642;2022-12-07T18:29:38;18.40;51.80
16404;DHT22;8311;50.158;8.642;2022-12-07T18:32:32;18.40;51.80
16404;DHT22;8311;50.158;8.642;2022-12-07T18:35:25;18.50;51.80
16404;DHT22;8311;50.158;8.642;2022-12-07T18:38:18;18.50;51.80
16404;DHT22;8311;50.158;8.642;2022-12-07T18:41:13;18.50;51.80
16404;DHT22;8311;50.158;8.642;2022-12-07T18:44:07;18.40;51.80
16404;DHT22;8311;50.158;8.642;2022-12-07T18:47:01;18.50;51.80
16404;DHT22;8311;50.158;8.642;2022-12-07T18:49:54;18.40;51.80
16404;DHT22;8311;50.158;8.642;2022-12-07T18:52:48;18.50;51.90
16404;DHT22;8311;50.158;8.642;2022-12-07T18:55:41;18.40;51.80